首页
METAR-TAF:

METAR-TAF

机场 :

阿尔及尔胡阿里·布迈丁机场

阿爾及爾, 阿尔及利亚

纬度: 36-43N, 经度: 003-15E, 海拔: 25米

当前天气观测

该预报发布于17分钟前的02:00 UTC
风速3节,风向,在东转东北东转东南之间变化
温度 18°C
湿度 94%
气压 1016 hPa
能見度: 8000
少量云层高于2000英尺

METAR: DAAG 230200Z 09003KT 060V120 8000 FEW020 18/17 Q1016

时间: 03:17 (02:17 UTC)

预报

该预报发布于3小时和17分钟前的23:00 UTC
预报有效从23日的 00点(UTC)到 23日的 24点(UTC)
风速2节,风向多变
能见度10公里或以上
少量云层高于2600英尺
几率 30% :
短暂存在
从 23日的 00点(UTC)到 23日的 06点(UTC)
能見度: 3000
多云层高于1500英尺
轻雾
成为
从 23日的 08点(UTC)到 23日的 11点(UTC)
风速12节,风向东北

TAF: DAAG 222300Z 2300/2324 VRB02KT 9999 FEW026 PROB30 TEMPO 2300/2306 3000 BR BKN015 BECMG 2308/2311 04012KT

超过4000个机场的气象观测和天气预报(METAR&TAF报告)。

可查询的气象台以黄色和红色小点在地图上表示。

将鼠标移到小点上方,可查看气象台名称。

然后点击查看天气观测和预报。

如需切换地图:点击带黑十字的绿色按钮放大地图;点击带横线的绿色按钮缩小地图;或者点击绿色箭头查看邻近地区的地图。


METAR-TAF: